createdAt,value
2023-04-16T00:02:01.471Z,4.10
2023-04-16T00:04:28.694Z,4.83
2023-04-16T00:06:55.846Z,4.27
2023-04-16T00:09:22.767Z,5.10
2023-04-16T00:11:49.677Z,6.30
2023-04-16T00:14:16.564Z,5.17
2023-04-16T00:16:43.556Z,4.80
2023-04-16T00:19:10.882Z,5.30
2023-04-16T00:21:37.930Z,5.67
2023-04-16T00:24:04.935Z,4.90
2023-04-16T00:26:31.833Z,4.40
2023-04-16T00:28:58.851Z,4.80
2023-04-16T00:31:30.658Z,6.03
2023-04-16T00:33:58.229Z,6.40
2023-04-16T00:36:27.207Z,7.07
2023-04-16T00:38:54.569Z,9.77
2023-04-16T00:41:23.101Z,8.63
2023-04-16T00:43:50.968Z,7.77
2023-04-16T00:46:19.576Z,7.83
2023-04-16T00:48:46.835Z,10.27
2023-04-16T00:51:13.692Z,7.43
2023-04-16T00:53:40.911Z,6.00
2023-04-16T00:56:08.254Z,6.97
2023-04-16T00:58:35.848Z,5.67
2023-04-16T01:01:03.025Z,11.30
2023-04-16T01:03:41.534Z,9.13
2023-04-16T01:06:08.628Z,8.20
2023-04-16T01:08:36.296Z,8.17
2023-04-16T01:11:04.210Z,8.30
2023-04-16T01:13:31.903Z,5.27
2023-04-16T01:15:58.898Z,8.17
2023-04-16T01:18:26.831Z,6.43
2023-04-16T01:20:53.774Z,9.03
2023-04-16T01:23:20.755Z,6.03
2023-04-16T01:25:47.856Z,4.90
2023-04-16T01:28:15.062Z,5.93
2023-04-16T01:30:41.966Z,6.23
2023-04-16T01:33:18.983Z,5.53
2023-04-16T01:35:46.061Z,6.00
2023-04-16T01:38:15.713Z,5.57
2023-04-16T01:40:42.879Z,5.73
2023-04-16T01:43:09.833Z,7.67
2023-04-16T01:45:36.722Z,7.50
2023-04-16T01:48:04.565Z,6.80
2023-04-16T01:50:31.989Z,7.93
2023-04-16T01:52:58.912Z,6.33
2023-04-16T01:55:26.972Z,4.40
2023-04-16T01:57:53.959Z,5.07
2023-04-16T02:00:25.833Z,4.73
2023-04-16T02:02:53.735Z,4.03
2023-04-16T02:05:26.515Z,5.10
2023-04-16T02:07:53.395Z,5.53
2023-04-16T02:10:20.804Z,5.13
2023-04-16T02:12:48.101Z,6.70
2023-04-16T02:15:16.447Z,7.20
2023-04-16T02:17:43.725Z,7.73
2023-04-16T02:20:11.397Z,7.60
2023-04-16T02:22:48.270Z,8.30
2023-04-16T02:25:18.660Z,7.90
2023-04-16T02:27:46.035Z,7.77
2023-04-16T02:30:37.255Z,6.53
2023-04-16T02:33:07.445Z,5.60
2023-04-16T02:35:35.373Z,5.03
2023-04-16T02:38:04.237Z,6.37
2023-04-16T02:40:32.035Z,5.53
2023-04-16T02:42:59.786Z,6.33
2023-04-16T02:45:27.439Z,4.50
2023-04-16T02:47:54.584Z,4.33
2023-04-16T02:50:21.553Z,6.03
2023-04-16T02:52:48.705Z,4.50
2023-04-16T02:55:16.181Z,4.70
2023-04-16T02:57:43.160Z,3.63
2023-04-16T03:00:10.614Z,3.10
2023-04-16T03:02:37.648Z,3.50
2023-04-16T03:05:04.895Z,3.53
2023-04-16T03:07:31.836Z,5.20
2023-04-16T03:09:58.754Z,4.17
2023-04-16T03:12:25.810Z,3.43
2023-04-16T03:14:52.782Z,3.63
2023-04-16T03:17:19.694Z,3.17
2023-04-16T03:19:46.637Z,3.33
2023-04-16T03:22:13.611Z,3.00
2023-04-16T03:24:40.680Z,2.90
2023-04-16T03:27:07.678Z,2.90
2023-04-16T03:29:38.452Z,2.80
2023-04-16T03:32:08.098Z,3.40
2023-04-16T03:34:36.829Z,4.00
2023-04-16T03:37:05.549Z,3.00
2023-04-16T03:39:33.936Z,3.07
2023-04-16T03:42:02.008Z,3.97
2023-04-16T03:44:29.548Z,3.40
2023-04-16T03:46:56.533Z,2.93
2023-04-16T03:49:23.635Z,3.20
2023-04-16T03:51:51.326Z,2.77
2023-04-16T03:54:20.102Z,2.70
2023-04-16T03:56:54.111Z,2.40
2023-04-16T03:59:21.006Z,2.37
2023-04-16T04:01:48.076Z,2.40
2023-04-16T04:04:15.396Z,2.60
2023-04-16T04:06:42.492Z,2.67
2023-04-16T04:09:09.629Z,2.73
2023-04-16T04:11:36.985Z,3.80
2023-04-16T04:14:05.322Z,2.43
2023-04-16T04:16:32.768Z,2.33
2023-04-16T04:19:00.414Z,2.20
2023-04-16T04:21:28.705Z,2.33
2023-04-16T04:23:56.179Z,2.30
2023-04-16T04:26:23.467Z,2.50
2023-04-16T04:28:50.928Z,2.57
2023-04-16T04:31:18.663Z,2.53
2023-04-16T04:33:45.786Z,3.00
2023-04-16T04:36:12.751Z,3.23
2023-04-16T04:38:39.724Z,3.87
2023-04-16T04:41:06.688Z,3.27
2023-04-16T04:43:36.370Z,4.13
2023-04-16T04:46:03.420Z,2.77
2023-04-16T04:48:31.831Z,3.20
2023-04-16T04:50:59.065Z,3.47
2023-04-16T04:53:26.034Z,3.40
2023-04-16T04:55:57.252Z,3.10
2023-04-16T04:58:28.838Z,3.73
2023-04-16T05:00:55.765Z,3.50
2023-04-16T05:03:22.775Z,3.90
2023-04-16T05:05:49.727Z,4.33
2023-04-16T05:08:16.709Z,4.60
2023-04-16T05:10:43.627Z,3.80
2023-04-16T05:13:10.516Z,6.23
2023-04-16T05:15:37.847Z,5.97
2023-04-16T05:18:04.818Z,5.60
2023-04-16T05:20:31.837Z,5.13
2023-04-16T05:22:58.694Z,6.57
2023-04-16T05:25:25.763Z,8.20
2023-04-16T05:27:52.695Z,7.87
2023-04-16T05:30:19.689Z,6.37
2023-04-16T05:32:46.820Z,5.57
2023-04-16T05:35:15.308Z,5.87
2023-04-16T05:37:44.203Z,5.03
2023-04-16T05:40:13.670Z,4.87
2023-04-16T05:42:40.576Z,4.87
2023-04-16T05:45:08.055Z,4.17
2023-04-16T05:47:35.033Z,4.27
2023-04-16T05:50:01.948Z,3.10
2023-04-16T05:52:28.877Z,2.90
2023-04-16T05:54:55.960Z,2.60
2023-04-16T05:57:22.815Z,2.97
2023-04-16T05:59:49.749Z,4.27
2023-04-16T06:02:16.768Z,3.37
2023-04-16T06:04:44.230Z,3.23
2023-04-16T06:07:11.096Z,3.47
2023-04-16T06:09:37.966Z,2.90
2023-04-16T06:12:05.058Z,3.40
2023-04-16T06:14:31.898Z,3.57
2023-04-16T06:16:58.815Z,3.80
2023-04-16T06:19:25.728Z,3.23
2023-04-16T06:21:53.176Z,5.70
2023-04-16T06:24:20.107Z,3.47
2023-04-16T06:26:46.983Z,7.47
2023-04-16T06:29:13.863Z,3.10
2023-04-16T06:31:41.080Z,3.73
2023-04-16T06:34:09.290Z,3.27
2023-04-16T06:36:37.637Z,3.80
2023-04-16T06:39:05.067Z,3.37
2023-04-16T06:41:32.105Z,3.83
2023-04-16T06:43:58.952Z,4.03
2023-04-16T06:46:26.169Z,4.00
2023-04-16T06:48:53.034Z,4.63
2023-04-16T06:51:19.915Z,3.33
2023-04-16T06:53:46.787Z,4.13
2023-04-16T06:56:13.693Z,3.90
2023-04-16T06:58:40.554Z,3.90
2023-04-16T07:01:07.537Z,3.73
2023-04-16T07:03:34.714Z,4.40
2023-04-16T07:06:01.780Z,3.77
2023-04-16T07:08:28.706Z,4.00
2023-04-16T07:10:55.680Z,5.87
2023-04-16T07:13:22.526Z,5.13
2023-04-16T07:15:49.395Z,4.27
2023-04-16T07:18:16.736Z,4.30
2023-04-16T07:20:43.710Z,7.13
2023-04-16T07:23:10.602Z,5.40
2023-04-16T07:25:37.568Z,5.63
2023-04-16T07:28:04.811Z,5.80
2023-04-16T07:30:34.654Z,5.60
2023-04-16T07:33:05.633Z,5.43
2023-04-16T07:35:32.813Z,6.47
2023-04-16T07:37:59.653Z,7.23
2023-04-16T07:40:26.704Z,6.43
2023-04-16T07:42:54.555Z,6.87
2023-04-16T07:45:21.512Z,7.40
2023-04-16T07:47:48.510Z,6.63
2023-04-16T07:50:16.399Z,7.80
2023-04-16T07:52:45.268Z,7.30
2023-04-16T07:55:12.228Z,8.17
2023-04-16T07:57:39.048Z,8.10
2023-04-16T08:00:07.001Z,8.20
2023-04-16T08:02:40.102Z,7.83
2023-04-16T08:05:07.546Z,8.33
2023-04-16T08:07:34.888Z,7.50
2023-04-16T08:10:02.416Z,7.90
2023-04-16T08:12:29.761Z,8.67
2023-04-16T08:14:56.632Z,10.13
2023-04-16T08:17:23.562Z,9.03
2023-04-16T08:19:50.728Z,10.63
2023-04-16T08:22:17.694Z,8.30
2023-04-16T08:24:44.537Z,7.63
2023-04-16T08:27:19.267Z,8.87
2023-04-16T08:29:47.963Z,7.53
2023-04-16T08:32:15.045Z,7.10
2023-04-16T08:34:42.202Z,9.13
2023-04-16T08:37:09.684Z,8.97
2023-04-16T08:39:36.695Z,7.40
2023-04-16T08:42:06.693Z,7.57
2023-04-16T08:44:37.382Z,7.10
2023-04-16T08:47:09.492Z,7.50
2023-04-16T08:49:42.751Z,10.77
2023-04-16T08:52:19.684Z,7.10
2023-04-16T08:54:56.455Z,8.07
2023-04-16T08:57:30.835Z,7.40
2023-04-16T08:59:58.309Z,6.53
2023-04-16T09:02:27.104Z,8.40
2023-04-16T09:04:56.499Z,8.43
2023-04-16T09:07:25.850Z,8.83
2023-04-16T09:09:53.772Z,8.83
2023-04-16T09:12:24.110Z,9.90
2023-04-16T09:14:51.415Z,8.40
2023-04-16T09:17:21.502Z,7.97
2023-04-16T09:19:48.649Z,8.27
2023-04-16T09:22:17.175Z,11.60
2023-04-16T09:24:44.037Z,7.23
2023-04-16T09:27:12.606Z,8.00
2023-04-16T09:29:41.495Z,7.57
2023-04-16T09:32:10.255Z,10.67
2023-04-16T09:34:59.200Z,7.83
2023-04-16T09:37:29.661Z,8.77
2023-04-16T09:40:01.432Z,8.73
2023-04-16T09:42:37.108Z,8.03
2023-04-16T09:45:06.018Z,9.07
2023-04-16T09:47:41.520Z,9.23
2023-04-16T09:50:12.477Z,10.20
2023-04-16T09:52:39.850Z,7.87
2023-04-16T09:55:07.136Z,8.93
2023-04-16T09:57:37.966Z,10.13
2023-04-16T10:00:10.242Z,9.73
2023-04-16T10:02:42.007Z,10.60
2023-04-16T10:05:09.763Z,8.20
2023-04-16T10:07:37.659Z,8.20
2023-04-16T10:10:05.126Z,9.63
2023-04-16T10:12:33.002Z,8.70
2023-04-16T10:15:00.035Z,8.33
2023-04-16T10:17:30.073Z,7.47
2023-04-16T10:19:58.606Z,6.87
2023-04-16T10:22:26.587Z,7.33
2023-04-16T10:24:54.016Z,7.53
2023-04-16T10:27:21.180Z,6.03
2023-04-16T10:29:49.435Z,6.20
2023-04-16T10:32:18.482Z,8.23
2023-04-16T10:34:45.637Z,6.03
2023-04-16T10:37:12.695Z,6.63
2023-04-16T10:39:39.592Z,6.70
2023-04-16T10:42:13.502Z,6.13
2023-04-16T10:44:45.057Z,6.07
2023-04-16T10:47:13.838Z,7.77
2023-04-16T10:49:42.432Z,6.57
2023-04-16T10:52:14.963Z,6.93
2023-04-16T10:54:41.913Z,7.40
2023-04-16T10:57:12.300Z,7.10
2023-04-16T10:59:41.960Z,4.87
2023-04-16T11:02:19.200Z,7.10
2023-04-16T11:04:48.973Z,6.53
2023-04-16T11:07:19.659Z,5.57
2023-04-16T11:10:00.624Z,6.80
2023-04-16T11:12:33.600Z,5.80
2023-04-16T11:15:03.756Z,6.27
2023-04-16T11:17:39.099Z,6.77
2023-04-16T11:20:20.411Z,6.00
2023-04-16T11:22:49.102Z,7.87
2023-04-16T11:25:26.889Z,6.10
2023-04-16T11:27:54.811Z,8.37
2023-04-16T11:30:36.286Z,6.73
2023-04-16T11:33:12.513Z,7.43
2023-04-16T11:35:41.253Z,5.27
2023-04-16T11:38:08.170Z,6.43
2023-04-16T11:40:36.347Z,5.47
2023-04-16T11:43:14.930Z,7.03
2023-04-16T11:45:59.575Z,6.17
2023-04-16T11:48:26.726Z,6.50
2023-04-16T11:50:59.725Z,6.13
2023-04-16T11:53:27.064Z,6.87
2023-04-16T11:55:53.969Z,5.63
2023-04-16T11:58:22.330Z,6.63
2023-04-16T12:00:53.376Z,6.90
2023-04-16T12:03:38.447Z,6.80
2023-04-16T12:06:09.595Z,6.50
2023-04-16T12:08:36.460Z,7.67
2023-04-16T12:11:03.395Z,5.97
2023-04-16T12:13:30.778Z,8.00
2023-04-16T12:15:57.876Z,6.10
2023-04-16T12:18:27.167Z,5.60
2023-04-16T12:20:54.297Z,6.60
2023-04-16T12:23:29.055Z,7.10
2023-04-16T12:25:59.727Z,5.83
2023-04-16T12:28:32.516Z,8.13
2023-04-16T12:31:00.007Z,6.43
2023-04-16T12:33:26.964Z,6.47
2023-04-16T12:35:54.110Z,7.67
2023-04-16T12:38:22.198Z,6.90
2023-04-16T12:40:51.460Z,6.60
2023-04-16T12:43:19.808Z,5.63
2023-04-16T12:45:46.889Z,4.43
2023-04-16T12:48:13.712Z,4.97
2023-04-16T12:50:40.683Z,6.10
2023-04-16T12:53:07.628Z,6.27
2023-04-16T12:55:34.589Z,6.57
2023-04-16T12:58:01.642Z,4.93
2023-04-16T13:00:28.610Z,5.20
2023-04-16T13:02:56.120Z,4.87
2023-04-16T13:05:23.056Z,6.63
2023-04-16T13:07:49.953Z,5.43
2023-04-16T13:10:17.422Z,4.20
2023-04-16T13:12:44.286Z,5.83
2023-04-16T13:15:11.436Z,5.10
2023-04-16T13:17:38.372Z,5.37
2023-04-16T13:20:05.766Z,4.73
2023-04-16T13:22:32.681Z,5.40
2023-04-16T13:24:59.647Z,4.97
2023-04-16T13:27:26.645Z,5.50
2023-04-16T13:29:53.637Z,7.33
2023-04-16T13:32:20.715Z,6.60
2023-04-16T13:34:47.680Z,7.20
2023-04-16T13:37:14.673Z,7.00
2023-04-16T13:39:41.625Z,6.90
2023-04-16T13:42:08.469Z,6.47
2023-04-16T13:44:35.446Z,4.37
2023-04-16T13:47:02.456Z,6.17
2023-04-16T13:49:29.703Z,5.30
2023-04-16T13:51:56.719Z,5.07
2023-04-16T13:54:23.545Z,4.83
2023-04-16T13:56:51.356Z,4.90
2023-04-16T13:59:18.660Z,5.47
2023-04-16T14:01:45.696Z,5.97
2023-04-16T14:04:12.869Z,7.80
2023-04-16T14:06:39.786Z,6.10
2023-04-16T14:09:06.903Z,7.43
2023-04-16T14:11:33.737Z,6.70
2023-04-16T14:14:00.664Z,6.50
2023-04-16T14:16:27.687Z,6.03
2023-04-16T14:18:54.572Z,5.97
2023-04-16T14:21:21.394Z,9.10
2023-04-16T14:23:48.264Z,7.20
2023-04-16T14:26:15.144Z,7.93
2023-04-16T14:28:42.089Z,8.33
2023-04-16T14:31:09.071Z,8.87
2023-04-16T14:33:36.854Z,10.40
2023-04-16T14:36:04.031Z,8.20
2023-04-16T14:38:31.322Z,9.07
2023-04-16T14:40:58.262Z,8.37
2023-04-16T14:43:25.125Z,6.63
2023-04-16T14:45:52.832Z,9.50
2023-04-16T14:48:19.855Z,14.33
2023-04-16T14:50:46.751Z,10.60
2023-04-16T14:53:13.776Z,10.20
2023-04-16T14:55:40.723Z,9.10
2023-04-16T14:58:07.620Z,10.90
2023-04-16T15:00:37.667Z,8.67
2023-04-16T15:03:05.232Z,10.97
2023-04-16T15:05:32.187Z,12.23
2023-04-16T15:07:59.023Z,9.27
2023-04-16T15:10:25.854Z,11.40
2023-04-16T15:12:52.763Z,8.70
2023-04-16T15:15:19.710Z,11.50
2023-04-16T15:17:46.672Z,8.73
2023-04-16T15:20:13.630Z,8.40
2023-04-16T15:22:40.697Z,7.50
2023-04-16T15:25:08.159Z,8.77
2023-04-16T15:27:35.052Z,8.20
2023-04-16T15:30:02.104Z,7.53
2023-04-16T15:32:29.054Z,6.93
2023-04-16T15:34:56.005Z,7.23
2023-04-16T15:37:23.537Z,6.30
2023-04-16T15:39:50.508Z,8.27
2023-04-16T15:42:17.388Z,7.57
2023-04-16T15:44:44.318Z,7.37
2023-04-16T15:47:11.204Z,7.43
2023-04-16T15:49:38.199Z,9.63
2023-04-16T15:52:05.132Z,8.77
2023-04-16T15:54:32.230Z,8.30
2023-04-16T15:56:59.152Z,8.07
2023-04-16T15:59:26.847Z,8.77
2023-04-16T16:01:53.958Z,8.27
2023-04-16T16:04:22.959Z,7.87
2023-04-16T16:06:50.791Z,8.03
2023-04-16T16:09:18.502Z,7.57
2023-04-16T16:11:45.630Z,9.33
2023-04-16T16:14:14.906Z,8.70
2023-04-16T16:16:42.814Z,10.17
2023-04-16T16:19:10.379Z,8.03
2023-04-16T16:21:37.695Z,9.30
2023-04-16T16:24:04.618Z,12.67
2023-04-16T16:26:31.408Z,7.93
2023-04-16T16:28:58.366Z,9.60
2023-04-16T16:31:25.568Z,8.83
2023-04-16T16:33:52.557Z,11.20
2023-04-16T16:36:19.490Z,11.83
2023-04-16T16:38:47.401Z,10.00
2023-04-16T16:41:14.396Z,9.63
2023-04-16T16:43:41.249Z,10.10
2023-04-16T16:46:09.925Z,10.67
2023-04-16T16:48:36.836Z,8.53
2023-04-16T16:51:03.852Z,9.80
2023-04-16T16:53:30.772Z,8.90
2023-04-16T16:55:57.560Z,7.43
2023-04-16T16:58:24.438Z,9.13
2023-04-16T17:00:51.570Z,14.77
2023-04-16T17:03:18.504Z,11.03
2023-04-16T17:05:45.689Z,11.03
2023-04-16T17:08:13.838Z,9.63
2023-04-16T17:10:40.619Z,13.93
2023-04-16T17:13:07.431Z,11.63
2023-04-16T17:15:34.242Z,10.63
2023-04-16T17:18:01.071Z,8.37
2023-04-16T17:20:27.908Z,9.80
2023-04-16T17:22:54.871Z,6.13
2023-04-16T17:25:21.703Z,6.63
2023-04-16T17:27:48.499Z,7.93
2023-04-16T17:30:15.582Z,7.27
2023-04-16T17:32:42.466Z,6.33
2023-04-16T17:35:10.239Z,5.57
2023-04-16T17:37:37.129Z,7.67
2023-04-16T17:40:07.712Z,8.13
2023-04-16T17:42:35.408Z,7.57
2023-04-16T17:45:02.844Z,6.97
2023-04-16T17:47:29.748Z,7.57
2023-04-16T17:49:56.630Z,5.80
2023-04-16T17:52:23.594Z,5.80
2023-04-16T17:54:50.571Z,5.90
2023-04-16T17:57:17.354Z,6.53
2023-04-16T17:59:44.218Z,5.23
2023-04-16T18:02:11.394Z,6.23
2023-04-16T18:04:38.512Z,5.03
2023-04-16T18:07:05.595Z,4.47
2023-04-16T18:09:32.742Z,6.53
2023-04-16T18:11:59.656Z,5.10
2023-04-16T18:14:26.796Z,5.40
2023-04-16T18:16:53.586Z,4.60
2023-04-16T18:19:20.588Z,4.70
2023-04-16T18:21:47.423Z,4.17
2023-04-16T18:24:15.410Z,4.23
2023-04-16T18:26:42.508Z,4.00
2023-04-16T18:29:12.469Z,4.47
2023-04-16T18:31:40.434Z,4.10
2023-04-16T18:34:07.415Z,4.60
2023-04-16T18:36:34.457Z,4.20
2023-04-16T18:39:02.453Z,4.33
2023-04-16T18:41:30.507Z,3.83
2023-04-16T18:43:57.516Z,5.30
2023-04-16T18:46:25.385Z,4.70
2023-04-16T18:48:52.381Z,4.40
2023-04-16T18:51:19.201Z,5.03
2023-04-16T18:53:46.091Z,4.97
2023-04-16T18:56:13.258Z,4.30
2023-04-16T18:58:40.498Z,4.63
2023-04-16T19:01:13.114Z,4.33
2023-04-16T19:03:40.328Z,4.80
2023-04-16T19:06:07.776Z,4.63
2023-04-16T19:08:34.596Z,4.37
2023-04-16T19:11:01.520Z,4.53
2023-04-16T19:13:30.390Z,5.20
2023-04-16T19:16:01.529Z,5.30
2023-04-16T19:18:28.435Z,4.73
2023-04-16T19:21:01.853Z,6.63
2023-04-16T19:23:29.188Z,4.00
2023-04-16T19:25:57.093Z,4.90
2023-04-16T19:28:24.759Z,4.40
2023-04-16T19:30:52.422Z,4.43
2023-04-16T19:33:19.493Z,5.73
2023-04-16T19:35:47.274Z,7.03
2023-04-16T19:38:14.777Z,6.10
2023-04-16T19:40:45.798Z,6.83
2023-04-16T19:43:12.985Z,6.07
2023-04-16T19:45:47.576Z,6.30
2023-04-16T19:48:14.843Z,6.10
2023-04-16T19:50:42.723Z,5.93
2023-04-16T19:53:09.845Z,6.47
2023-04-16T19:55:38.615Z,6.10
2023-04-16T19:58:08.379Z,4.80
2023-04-16T20:00:40.826Z,5.37
2023-04-16T20:03:07.912Z,5.00
2023-04-16T20:05:35.102Z,5.10
2023-04-16T20:08:02.736Z,4.90
2023-04-16T20:10:31.478Z,4.30
2023-04-16T20:12:58.604Z,4.77
2023-04-16T20:15:25.756Z,5.27
2023-04-16T20:17:53.406Z,4.47
2023-04-16T20:20:22.595Z,5.13
2023-04-16T20:22:49.699Z,3.83
2023-04-16T20:25:18.764Z,4.03
2023-04-16T20:27:45.851Z,3.93
2023-04-16T20:30:13.467Z,5.30
2023-04-16T20:32:40.302Z,7.30
2023-04-16T20:35:10.563Z,7.87
2023-04-16T20:37:42.288Z,4.97
2023-04-16T20:40:10.017Z,5.90
2023-04-16T20:42:36.902Z,6.23
2023-04-16T20:45:04.004Z,7.83
2023-04-16T20:47:30.820Z,4.60
2023-04-16T20:49:58.164Z,5.80
2023-04-16T20:52:25.092Z,4.77
2023-04-16T20:54:52.375Z,6.50
2023-04-16T20:57:19.451Z,4.90
2023-04-16T20:59:46.419Z,8.23
2023-04-16T21:02:13.796Z,5.13
2023-04-16T21:04:40.811Z,5.47
2023-04-16T21:07:07.719Z,4.63
2023-04-16T21:09:34.600Z,8.63
2023-04-16T21:12:01.796Z,5.87
2023-04-16T21:14:28.721Z,5.43
2023-04-16T21:16:55.591Z,4.80
2023-04-16T21:19:22.512Z,5.23
2023-04-16T21:21:49.492Z,6.27
2023-04-16T21:24:16.341Z,6.30
2023-04-16T21:26:43.126Z,5.33
2023-04-16T21:29:10.125Z,5.37
2023-04-16T21:31:37.073Z,7.37
2023-04-16T21:34:03.948Z,5.43
2023-04-16T21:36:33.020Z,6.63
2023-04-16T21:38:59.933Z,5.03
2023-04-16T21:41:26.924Z,4.40
2023-04-16T21:43:53.853Z,4.73
2023-04-16T21:46:21.264Z,4.63
2023-04-16T21:48:48.550Z,4.70
2023-04-16T21:51:15.857Z,4.27
2023-04-16T21:53:42.711Z,4.70
2023-04-16T21:56:09.514Z,5.23
2023-04-16T21:58:36.382Z,4.77
2023-04-16T22:01:03.228Z,3.97
2023-04-16T22:03:31.123Z,4.70
2023-04-16T22:06:00.924Z,4.13
2023-04-16T22:08:29.280Z,2.73
2023-04-16T22:11:01.495Z,2.60
2023-04-16T22:13:32.426Z,4.80
2023-04-16T22:16:02.895Z,2.80
2023-04-16T22:18:32.912Z,4.37
2023-04-16T22:21:00.454Z,3.20
2023-04-16T22:23:27.280Z,6.07
2023-04-16T22:25:55.482Z,10.07
2023-04-16T22:28:22.809Z,9.50
2023-04-16T22:30:50.031Z,8.07
2023-04-16T22:33:17.002Z,9.23
2023-04-16T22:35:43.913Z,6.67
2023-04-16T22:38:10.782Z,5.63
2023-04-16T22:40:37.679Z,6.03
2023-04-16T22:43:04.920Z,8.57
2023-04-16T22:45:31.853Z,5.40
2023-04-16T22:47:58.809Z,7.70
2023-04-16T22:50:25.759Z,8.50
2023-04-16T22:52:52.595Z,5.47
2023-04-16T22:55:19.568Z,4.57
2023-04-16T22:57:47.551Z,6.43
2023-04-16T23:00:16.356Z,4.93
2023-04-16T23:02:44.006Z,5.47
2023-04-16T23:05:11.741Z,6.33
2023-04-16T23:07:38.731Z,3.97
2023-04-16T23:10:06.251Z,8.20
2023-04-16T23:12:33.155Z,5.90
2023-04-16T23:15:00.836Z,7.53
2023-04-16T23:17:28.038Z,4.20
2023-04-16T23:19:55.522Z,6.77
2023-04-16T23:22:22.307Z,5.20
2023-04-16T23:24:49.174Z,3.70
2023-04-16T23:27:16.027Z,6.07
2023-04-16T23:29:42.858Z,5.93
2023-04-16T23:32:09.778Z,8.67
2023-04-16T23:34:36.614Z,5.53
2023-04-16T23:37:03.440Z,4.87
2023-04-16T23:39:30.479Z,5.90
2023-04-16T23:41:57.631Z,7.20
2023-04-16T23:44:24.593Z,8.80
2023-04-16T23:46:51.436Z,9.73
2023-04-16T23:49:18.276Z,5.80
2023-04-16T23:51:45.246Z,6.50
2023-04-16T23:54:12.115Z,6.43
2023-04-16T23:56:38.921Z,10.90
2023-04-16T23:59:05.944Z,8.17
